Startpagina
METAR-TAF:

METAR-TAF

Vliegvelden :

Bonriki International Airport

Tarawa, Kiribati

breedte: 01-21N, lengte: 172-55E, hoogte: 2 m

Actueel weer

Dit bericht is 45 minuten geleden gemaakt, om 10:00 UTC
Wind 4 kt uit het oostzuidoosten
Temperatuur 29°C
Vochtigheid 70%
Druk 1009 hPa
Zicht 10 km of meer
Verspreide wolken op 2000 ft
Verspreide wolken op 30000 ft

METAR: NGTA 191000Z 12004KT 9999 SCT020 SCT300 29/23 Q1009

Tijdstip: 00:45 (10:45 UTC)

Verwachting

Dit bericht is 5 uur en het 28 minuten geleden gemaakt, om 05:17 UTC
Verwachting geldig van 19 om 06 UTC tot 20 om 06 UTC
Wind 7 kt uit het oosten
Zicht 10 km of meer
Verspreide wolken op 1900 ft

TAF: NGTA 190517Z 1906/2006 10007KT 9999 SCT019

Waarnemingen en weersverwachtingen van meer dan 4000 vliegvelden (METAR en TAF).

De beschikbare stations zijn de gele en rode punten op de kaart.

Ga met uw muis naar het station om de naam te zien.

Klik dan om waarnemingen en weersverwachtingen te zien.

kaart wijzigen: klik op de groene knoppen met een zwart kruis om in te zoomen, op de groene knop met een streepje om uit te zoomen of op de groene pijlen voor aangrenzende kaarten.


METAR-TAF: